AEALH11 LEMD-SKBO
Flight info
| Callsign | AEALH11 |
|---|---|
| Flight time | N/A |
| Altitude | 35000 |
| Route | CCS DCT LUTAK/M083F350 DCT 36N020W 34N030W 30N040W 24N050W 20N056W DCT CITRS/N0489F350 UP533 PBL UW50 BNS UP533 KIKAS DCT DOPLO DOPLO5E |
| Aircraft | A333/H-SDE3GHIJ2J3J5M1RVWXY/LB2D1 |
Departure
| Time | N/A |
|---|---|
| Airport | Adolfo Suárez Madrid–Barajas Airport (LEMD) |
Arrival
| Time | 2026-05-01 11:56 |
|---|---|
| Airport | El Dorado International Airport (SKBO) |
| Time | Latitude | Longitude | Altitude | Speed | Heading |
|---|---|---|---|---|---|
| 2026-05-01 07:23 | 19.40765 | -56.90346 | 34983 ft | 422 kts | 240° |
| 2026-05-01 07:24 | 19.35737 | -56.97957 | 34979 ft | 423 kts | 240° |
| 2026-05-01 07:24 | 19.32359 | -57.03065 | 34982 ft | 423 kts | 240° |
| 2026-05-01 07:25 | 19.28983 | -57.08165 | 34981 ft | 423 kts | 240° |
| 2026-05-01 07:25 | 19.25604 | -57.13264 | 34983 ft | 423 kts | 240° |
| 2026-05-01 07:26 | 19.22230 | -57.18353 | 34982 ft | 422 kts | 240° |
| 2026-05-01 07:26 | 19.18857 | -57.23435 | 34983 ft | 422 kts | 240° |
| 2026-05-01 07:27 | 19.15478 | -57.28523 | 34977 ft | 422 kts | 239° |
| 2026-05-01 07:27 | 19.12092 | -57.33619 | 34981 ft | 424 kts | 239° |
| 2026-05-01 07:28 | 19.08722 | -57.38684 | 34978 ft | 424 kts | 239° |
| 2026-05-01 07:28 | 19.05331 | -57.43775 | 34978 ft | 423 kts | 239° |
| 2026-05-01 07:29 | 19.01940 | -57.48863 | 34980 ft | 423 kts | 239° |
| 2026-05-01 07:29 | 18.98547 | -57.53952 | 34979 ft | 423 kts | 239° |
| 2026-05-01 07:30 | 18.95157 | -57.59031 | 34979 ft | 423 kts | 239° |
| 2026-05-01 07:30 | 18.91763 | -57.64113 | 34980 ft | 424 kts | 239° |
| 2026-05-01 07:31 | 18.88363 | -57.69199 | 34978 ft | 424 kts | 239° |
| 2026-05-01 07:32 | 18.79885 | -57.81861 | 34977 ft | 423 kts | 239° |
| 2026-05-01 07:33 | 18.74784 | -57.89470 | 34981 ft | 423 kts | 239° |
| 2026-05-01 07:33 | 18.69675 | -57.97079 | 34978 ft | 424 kts | 239° |
| 2026-05-01 07:34 | 18.64553 | -58.04700 | 34979 ft | 424 kts | 239° |
| 2026-05-01 07:35 | 18.61157 | -58.09746 | 34976 ft | 424 kts | 239° |
| 2026-05-01 07:35 | 18.57733 | -58.14831 | 34976 ft | 424 kts | 239° |
| 2026-05-01 07:36 | 18.54338 | -58.19869 | 34976 ft | 424 kts | 239° |
| 2026-05-01 07:36 | 18.50923 | -58.24932 | 34976 ft | 423 kts | 239° |
| 2026-05-01 07:37 | 18.45801 | -58.32519 | 34977 ft | 423 kts | 239° |
| 2026-05-01 07:37 | 18.42386 | -58.37572 | 34974 ft | 423 kts | 239° |
| 2026-05-01 07:38 | 18.38971 | -58.42621 | 34976 ft | 423 kts | 239° |
| 2026-05-01 07:39 | 18.33838 | -58.50203 | 34975 ft | 423 kts | 239° |
| 2026-05-01 07:39 | 18.28720 | -58.57754 | 34974 ft | 422 kts | 239° |
| 2026-05-01 07:40 | 18.25326 | -58.62758 | 34970 ft | 423 kts | 239° |
| 2026-05-01 07:40 | 18.21898 | -58.67808 | 34975 ft | 425 kts | 239° |
| 2026-05-01 07:41 | 18.18459 | -58.72869 | 34974 ft | 425 kts | 239° |
| 2026-05-01 07:42 | 18.13873 | -58.79611 | 34975 ft | 425 kts | 239° |
| 2026-05-01 07:42 | 18.10432 | -58.84665 | 34971 ft | 425 kts | 239° |
| 2026-05-01 07:43 | 18.06992 | -58.89715 | 34972 ft | 425 kts | 239° |
| 2026-05-01 07:43 | 18.01821 | -58.97298 | 34969 ft | 426 kts | 239° |
| 2026-05-01 07:44 | 17.94253 | -59.07000 | 34971 ft | 431 kts | 234° |
| 2026-05-01 07:45 | 17.90324 | -59.11757 | 34972 ft | 431 kts | 234° |
| 2026-05-01 07:45 | 17.86394 | -59.16513 | 34972 ft | 430 kts | 234° |
| 2026-05-01 07:46 | 17.82497 | -59.21238 | 34969 ft | 430 kts | 234° |
| 2026-05-01 07:47 | 17.76618 | -59.28367 | 34962 ft | 431 kts | 234° |
| 2026-05-01 07:47 | 17.72684 | -59.33135 | 34967 ft | 432 kts | 233° |
| 2026-05-01 07:48 | 17.66778 | -59.40283 | 34970 ft | 432 kts | 233° |
| 2026-05-01 07:48 | 17.62841 | -59.45043 | 34965 ft | 432 kts | 233° |
| 2026-05-01 07:49 | 17.56925 | -59.52191 | 34965 ft | 432 kts | 233° |
| 2026-05-01 07:50 | 17.52984 | -59.56949 | 34963 ft | 432 kts | 233° |
| 2026-05-01 07:50 | 17.47082 | -59.64066 | 34966 ft | 433 kts | 233° |
| 2026-05-01 07:51 | 17.43130 | -59.68827 | 34966 ft | 433 kts | 233° |
| 2026-05-01 07:52 | 17.37196 | -59.75971 | 34966 ft | 433 kts | 233° |
| 2026-05-01 07:52 | 17.33268 | -59.80696 | 34966 ft | 433 kts | 233° |
| 2026-05-01 07:53 | 17.27337 | -59.87824 | 34960 ft | 433 kts | 232° |
| 2026-05-01 07:53 | 17.23371 | -59.92586 | 34963 ft | 434 kts | 232° |
| 2026-05-01 07:55 | 17.13475 | -60.04450 | 34963 ft | 433 kts | 232° |
| 2026-05-01 07:56 | 17.03558 | -60.16321 | 34956 ft | 433 kts | 232° |
| 2026-05-01 07:57 | 16.97585 | -60.23463 | 34963 ft | 436 kts | 232° |
| 2026-05-01 07:58 | 16.89614 | -60.32977 | 34960 ft | 436 kts | 232° |
| 2026-05-01 07:59 | 16.81618 | -60.42509 | 34960 ft | 436 kts | 232° |
| 2026-05-01 08:00 | 16.69554 | -60.56871 | 34964 ft | 440 kts | 232° |
| 2026-05-01 08:01 | 16.61506 | -60.66429 | 34959 ft | 440 kts | 232° |
| 2026-05-01 08:02 | 16.55440 | -60.73626 | 34963 ft | 440 kts | 232° |
| 2026-05-01 08:03 | 16.49349 | -60.80848 | 34966 ft | 445 kts | 232° |
| 2026-05-01 08:03 | 16.43198 | -60.88131 | 34966 ft | 447 kts | 232° |
| 2026-05-01 08:04 | 16.34982 | -60.97845 | 34963 ft | 447 kts | 232° |
| 2026-05-01 08:05 | 16.28845 | -61.05095 | 34966 ft | 446 kts | 232° |
| 2026-05-01 08:06 | 16.22695 | -61.12352 | 34972 ft | 445 kts | 232° |
| 2026-05-01 08:07 | 16.14502 | -61.22009 | 34967 ft | 446 kts | 232° |
| 2026-05-01 08:08 | 16.08344 | -61.29258 | 34959 ft | 446 kts | 232° |
| 2026-05-01 08:09 | 16.00135 | -61.38910 | 34976 ft | 444 kts | 232° |
| 2026-05-01 08:09 | 15.96039 | -61.43721 | 34962 ft | 444 kts | 232° |
| 2026-05-01 08:10 | 15.87841 | -61.53341 | 34975 ft | 444 kts | 232° |
| 2026-05-01 08:11 | 15.79664 | -61.62922 | 34956 ft | 444 kts | 232° |
| 2026-05-01 08:12 | 15.73507 | -61.70128 | 34943 ft | 444 kts | 232° |
| 2026-05-01 08:13 | 15.67346 | -61.77331 | 34953 ft | 445 kts | 232° |
| 2026-05-01 08:13 | 15.61183 | -61.84530 | 34948 ft | 445 kts | 232° |
| 2026-05-01 08:14 | 15.57071 | -61.89328 | 34953 ft | 445 kts | 232° |
| 2026-05-01 08:14 | 15.52955 | -61.94129 | 34962 ft | 445 kts | 232° |
| 2026-05-01 08:15 | 15.46816 | -62.01284 | 34960 ft | 444 kts | 232° |
| 2026-05-01 08:16 | 15.42702 | -62.06074 | 34958 ft | 445 kts | 232° |
| 2026-05-01 08:16 | 15.38586 | -62.10864 | 34953 ft | 445 kts | 232° |
| 2026-05-01 08:17 | 15.34466 | -62.15655 | 34956 ft | 445 kts | 232° |
| 2026-05-01 08:17 | 15.30366 | -62.20421 | 34957 ft | 445 kts | 232° |
| 2026-05-01 08:18 | 15.26247 | -62.25204 | 34956 ft | 445 kts | 232° |
| 2026-05-01 08:19 | 15.18008 | -62.34765 | 34953 ft | 445 kts | 231° |
| 2026-05-01 08:19 | 15.13886 | -62.39543 | 34957 ft | 445 kts | 231° |
| 2026-05-01 08:20 | 15.09764 | -62.44318 | 34954 ft | 445 kts | 231° |
| 2026-05-01 08:20 | 15.05642 | -62.49091 | 34953 ft | 445 kts | 231° |
| 2026-05-01 08:21 | 15.01515 | -62.53865 | 34949 ft | 445 kts | 231° |
| 2026-05-01 08:21 | 14.97418 | -62.58603 | 34954 ft | 444 kts | 231° |
| 2026-05-01 08:22 | 14.93295 | -62.63367 | 34960 ft | 444 kts | 231° |
| 2026-05-01 08:22 | 14.89175 | -62.68126 | 34948 ft | 445 kts | 231° |
| 2026-05-01 08:23 | 14.85039 | -62.72900 | 34955 ft | 445 kts | 231° |
| 2026-05-01 08:23 | 14.80906 | -62.77666 | 34952 ft | 445 kts | 231° |
| 2026-05-01 08:24 | 14.76768 | -62.82436 | 34952 ft | 445 kts | 231° |
| 2026-05-01 08:24 | 14.72631 | -62.87203 | 34953 ft | 445 kts | 231° |
| 2026-05-01 08:25 | 14.68526 | -62.91928 | 34952 ft | 445 kts | 231° |
| 2026-05-01 08:25 | 14.64389 | -62.96688 | 34953 ft | 445 kts | 231° |
| 2026-05-01 08:26 | 14.60252 | -63.01446 | 34948 ft | 446 kts | 231° |
| 2026-05-01 08:26 | 14.56106 | -63.06211 | 34948 ft | 446 kts | 231° |
| 2026-05-01 08:27 | 14.51958 | -63.10974 | 34949 ft | 446 kts | 231° |
| 2026-05-01 08:27 | 14.47811 | -63.15734 | 34949 ft | 446 kts | 231° |
| 2026-05-01 08:28 | 14.43667 | -63.20488 | 34949 ft | 445 kts | 231° |
| 2026-05-01 08:28 | 14.39547 | -63.25211 | 34946 ft | 445 kts | 231° |
| 2026-05-01 08:29 | 14.35403 | -63.29959 | 34949 ft | 445 kts | 231° |
| 2026-05-01 08:29 | 14.31251 | -63.34714 | 34946 ft | 446 kts | 231° |
| 2026-05-01 08:30 | 14.27800 | -63.38664 | 34946 ft | 446 kts | 231° |
| 2026-05-01 08:30 | 14.23649 | -63.43411 | 34950 ft | 446 kts | 231° |
| 2026-05-01 08:31 | 14.19495 | -63.48159 | 34947 ft | 445 kts | 231° |
| 2026-05-01 08:31 | 14.15345 | -63.52900 | 34942 ft | 445 kts | 231° |
| 2026-05-01 08:32 | 14.11197 | -63.57637 | 34942 ft | 445 kts | 231° |
| 2026-05-01 08:32 | 14.07049 | -63.62370 | 34941 ft | 445 kts | 230° |
| 2026-05-01 08:33 | 14.02887 | -63.67118 | 34941 ft | 447 kts | 230° |
| 2026-05-01 08:33 | 13.98740 | -63.71844 | 34941 ft | 447 kts | 230° |
| 2026-05-01 08:34 | 13.94568 | -63.76595 | 34942 ft | 447 kts | 230° |
| 2026-05-01 08:34 | 13.90395 | -63.81346 | 34941 ft | 447 kts | 230° |
| 2026-05-01 08:35 | 13.86256 | -63.86052 | 34960 ft | 431 kts | 230° |
| 2026-05-01 08:35 | 13.84289 | -63.88283 | 35364 ft | 413 kts | 231° |
| 2026-05-01 08:35 | 13.82368 | -63.90464 | 35665 ft | 411 kts | 231° |
| 2026-05-01 08:35 | 13.80437 | -63.92664 | 35803 ft | 416 kts | 231° |
| 2026-05-01 08:36 | 13.78490 | -63.94883 | 35905 ft | 421 kts | 230° |
| 2026-05-01 08:36 | 13.74532 | -63.99391 | 36092 ft | 432 kts | 230° |
| 2026-05-01 08:36 | 13.72508 | -64.01690 | 36202 ft | 437 kts | 230° |
| 2026-05-01 08:37 | 13.70455 | -64.04020 | 36312 ft | 441 kts | 230° |
| 2026-05-01 08:37 | 13.68383 | -64.06371 | 36450 ft | 445 kts | 230° |
| 2026-05-01 08:37 | 13.66293 | -64.08740 | 36687 ft | 447 kts | 230° |
| 2026-05-01 08:37 | 13.64205 | -64.11105 | 36984 ft | 446 kts | 230° |
| 2026-05-01 08:38 | 13.62141 | -64.13485 | 37325 ft | 445 kts | 232° |
| 2026-05-01 08:38 | 13.60165 | -64.15924 | 37669 ft | 443 kts | 233° |
| 2026-05-01 08:38 | 13.58250 | -64.18394 | 38030 ft | 441 kts | 234° |
| 2026-05-01 08:38 | 13.56363 | -64.20874 | 38340 ft | 439 kts | 234° |
| 2026-05-01 08:39 | 13.54486 | -64.23349 | 38650 ft | 438 kts | 234° |
| 2026-05-01 08:39 | 13.52612 | -64.25812 | 38890 ft | 438 kts | 234° |
| 2026-05-01 08:39 | 13.50730 | -64.28273 | 39125 ft | 437 kts | 234° |
| 2026-05-01 08:39 | 13.48843 | -64.30729 | 39273 ft | 439 kts | 234° |
| 2026-05-01 08:40 | 13.45047 | -64.35645 | 39695 ft | 439 kts | 234° |
| 2026-05-01 08:40 | 13.43147 | -64.38099 | 39911 ft | 438 kts | 234° |
| 2026-05-01 08:40 | 13.41251 | -64.40548 | 40123 ft | 438 kts | 234° |
| 2026-05-01 08:41 | 13.39381 | -64.42963 | 40341 ft | 437 kts | 234° |
| 2026-05-01 08:41 | 13.37492 | -64.45403 | 40577 ft | 436 kts | 234° |
| 2026-05-01 08:41 | 13.35599 | -64.47847 | 40793 ft | 436 kts | 234° |
| 2026-05-01 08:41 | 13.33712 | -64.50285 | 40910 ft | 437 kts | 234° |
| 2026-05-01 08:42 | 13.29914 | -64.55191 | 40933 ft | 439 kts | 234° |
| 2026-05-01 08:42 | 13.26119 | -64.60086 | 40934 ft | 438 kts | 234° |
| 2026-05-01 08:43 | 13.22318 | -64.64988 | 40937 ft | 438 kts | 234° |
| 2026-05-01 08:43 | 13.18522 | -64.69880 | 40936 ft | 438 kts | 234° |
| 2026-05-01 08:44 | 13.14748 | -64.74738 | 40933 ft | 438 kts | 234° |
| 2026-05-01 08:44 | 13.10947 | -64.79628 | 40933 ft | 438 kts | 234° |
| 2026-05-01 08:45 | 13.07143 | -64.84519 | 40932 ft | 438 kts | 234° |
| 2026-05-01 08:45 | 13.03344 | -64.89402 | 40933 ft | 438 kts | 234° |
| 2026-05-01 08:46 | 12.99540 | -64.94288 | 40936 ft | 438 kts | 234° |
| 2026-05-01 08:46 | 12.95738 | -64.99169 | 40928 ft | 438 kts | 234° |
| 2026-05-01 08:47 | 12.91927 | -65.04061 | 40929 ft | 438 kts | 234° |
| 2026-05-01 08:47 | 12.88125 | -65.08935 | 40930 ft | 437 kts | 234° |
| 2026-05-01 08:48 | 12.84357 | -65.13765 | 40931 ft | 437 kts | 234° |
| 2026-05-01 08:48 | 12.80559 | -65.18630 | 40928 ft | 437 kts | 234° |
| 2026-05-01 08:49 | 12.76762 | -65.23492 | 40925 ft | 437 kts | 234° |
| 2026-05-01 08:49 | 12.72967 | -65.28349 | 40927 ft | 437 kts | 234° |
| 2026-05-01 08:50 | 12.69168 | -65.33207 | 40922 ft | 436 kts | 234° |
| 2026-05-01 08:50 | 12.65371 | -65.38061 | 40922 ft | 436 kts | 234° |
| 2026-05-01 08:51 | 12.61570 | -65.42919 | 40923 ft | 436 kts | 234° |
| 2026-05-01 08:51 | 12.57794 | -65.47740 | 40924 ft | 437 kts | 234° |
| 2026-05-01 08:52 | 12.53993 | -65.52591 | 40919 ft | 437 kts | 234° |
| 2026-05-01 08:52 | 12.50193 | -65.57439 | 40919 ft | 436 kts | 234° |
| 2026-05-01 08:53 | 12.46393 | -65.62282 | 40923 ft | 436 kts | 234° |
| 2026-05-01 08:53 | 12.42595 | -65.67122 | 40921 ft | 435 kts | 234° |
| 2026-05-01 08:54 | 12.38802 | -65.71953 | 40916 ft | 435 kts | 234° |
| 2026-05-01 08:54 | 12.35010 | -65.76781 | 40917 ft | 435 kts | 234° |
| 2026-05-01 08:55 | 12.31237 | -65.81582 | 40917 ft | 436 kts | 234° |
| 2026-05-01 08:55 | 12.27428 | -65.86426 | 40919 ft | 437 kts | 234° |
| 2026-05-01 08:56 | 12.23616 | -65.91271 | 40918 ft | 437 kts | 234° |
| 2026-05-01 08:56 | 12.19802 | -65.96115 | 40912 ft | 436 kts | 234° |
| 2026-05-01 08:57 | 12.15999 | -66.00943 | 40909 ft | 436 kts | 234° |
| 2026-05-01 08:57 | 12.12225 | -66.05733 | 40907 ft | 436 kts | 234° |
| 2026-05-01 08:58 | 12.08423 | -66.10556 | 40913 ft | 436 kts | 234° |
| 2026-05-01 08:58 | 12.04623 | -66.15374 | 40908 ft | 436 kts | 234° |
| 2026-05-01 08:59 | 12.00807 | -66.20211 | 40911 ft | 437 kts | 234° |
| 2026-05-01 08:59 | 11.96986 | -66.25050 | 40910 ft | 437 kts | 234° |
| 2026-05-01 09:00 | 11.93188 | -66.29857 | 40913 ft | 436 kts | 234° |
| 2026-05-01 09:00 | 11.89378 | -66.34677 | 40914 ft | 435 kts | 234° |
| 2026-05-01 09:01 | 11.85578 | -66.39484 | 40907 ft | 435 kts | 234° |
| 2026-05-01 09:01 | 11.81770 | -66.44297 | 40909 ft | 435 kts | 234° |
| 2026-05-01 09:02 | 11.77960 | -66.49111 | 40908 ft | 435 kts | 234° |
| 2026-05-01 09:02 | 11.74155 | -66.53917 | 40900 ft | 435 kts | 234° |
| 2026-05-01 09:03 | 11.70342 | -66.58729 | 40907 ft | 435 kts | 234° |
| 2026-05-01 09:03 | 11.66539 | -66.63530 | 40909 ft | 435 kts | 234° |
| 2026-05-01 09:04 | 11.62735 | -66.68334 | 40906 ft | 435 kts | 234° |
| 2026-05-01 09:04 | 11.58957 | -66.73103 | 40902 ft | 435 kts | 234° |
| 2026-05-01 09:05 | 11.55144 | -66.77910 | 40903 ft | 435 kts | 234° |
| 2026-05-01 09:05 | 11.51332 | -66.82707 | 40903 ft | 435 kts | 234° |
| 2026-05-01 09:06 | 11.47521 | -66.87501 | 40899 ft | 435 kts | 234° |
| 2026-05-01 09:06 | 11.43727 | -66.92273 | 40892 ft | 435 kts | 233° |
| 2026-05-01 09:07 | 11.39915 | -66.97068 | 40896 ft | 435 kts | 233° |
| 2026-05-01 09:07 | 11.36101 | -67.01867 | 40903 ft | 435 kts | 234° |
| 2026-05-01 09:08 | 11.32292 | -67.06658 | 40899 ft | 435 kts | 233° |
| 2026-05-01 09:08 | 11.28479 | -67.11451 | 40899 ft | 435 kts | 233° |
| 2026-05-01 09:09 | 11.24664 | -67.16244 | 40893 ft | 435 kts | 233° |
| 2026-05-01 09:09 | 11.20850 | -67.21032 | 40891 ft | 435 kts | 233° |
| 2026-05-01 09:10 | 11.17034 | -67.25815 | 40896 ft | 435 kts | 233° |
| 2026-05-01 09:10 | 11.13243 | -67.30561 | 40886 ft | 435 kts | 233° |
| 2026-05-01 09:11 | 11.09427 | -67.35339 | 40892 ft | 435 kts | 233° |
| 2026-05-01 09:11 | 11.05605 | -67.40121 | 40892 ft | 435 kts | 233° |
| 2026-05-01 09:12 | 11.01779 | -67.44907 | 40892 ft | 435 kts | 233° |
| 2026-05-01 09:12 | 10.97937 | -67.49673 | 40892 ft | 436 kts | 232° |
| 2026-05-01 09:13 | 10.94008 | -67.54368 | 40894 ft | 436 kts | 232° |
| 2026-05-01 09:13 | 10.90051 | -67.59046 | 40892 ft | 436 kts | 232° |
| 2026-05-01 09:14 | 10.86103 | -67.63721 | 40892 ft | 435 kts | 232° |
| 2026-05-01 09:14 | 10.82158 | -67.68403 | 40891 ft | 435 kts | 232° |
| 2026-05-01 09:15 | 10.78244 | -67.73051 | 40892 ft | 435 kts | 232° |
| 2026-05-01 09:15 | 10.74301 | -67.77731 | 40903 ft | 435 kts | 232° |
| 2026-05-01 09:16 | 10.70356 | -67.82410 | 40900 ft | 435 kts | 232° |
| 2026-05-01 09:17 | 10.64436 | -67.89409 | 40898 ft | 435 kts | 231° |
| 2026-05-01 09:17 | 10.59086 | -67.95559 | 40908 ft | 436 kts | 231° |
| 2026-05-01 09:18 | 10.52393 | -68.03212 | 40911 ft | 436 kts | 231° |
| 2026-05-01 09:19 | 10.47010 | -68.09386 | 40919 ft | 436 kts | 231° |
| 2026-05-01 09:20 | 10.41027 | -68.16291 | 40923 ft | 436 kts | 231° |
| 2026-05-01 09:21 | 10.33005 | -68.25543 | 40923 ft | 436 kts | 231° |
| 2026-05-01 09:21 | 10.27021 | -68.32437 | 40925 ft | 436 kts | 231° |
| 2026-05-01 09:22 | 10.19013 | -68.41656 | 40934 ft | 435 kts | 231° |
| 2026-05-01 09:23 | 10.13001 | -68.48571 | 40931 ft | 435 kts | 231° |
| 2026-05-01 09:24 | 10.06986 | -68.55488 | 40941 ft | 436 kts | 231° |
| 2026-05-01 09:25 | 9.98995 | -68.64680 | 40926 ft | 435 kts | 231° |
| 2026-05-01 09:26 | 9.92988 | -68.71601 | 40929 ft | 435 kts | 231° |
| 2026-05-01 09:26 | 9.86980 | -68.78520 | 40911 ft | 436 kts | 231° |
| 2026-05-01 09:27 | 9.80979 | -68.85425 | 40915 ft | 437 kts | 231° |
| 2026-05-01 09:28 | 9.76957 | -68.90051 | 40912 ft | 437 kts | 231° |
| 2026-05-01 09:28 | 9.72932 | -68.94678 | 40899 ft | 437 kts | 231° |
| 2026-05-01 09:29 | 9.66904 | -69.01606 | 40903 ft | 437 kts | 231° |
| 2026-05-01 09:30 | 9.60900 | -69.08504 | 40892 ft | 437 kts | 231° |
| 2026-05-01 09:30 | 9.54874 | -69.15430 | 40902 ft | 437 kts | 231° |
| 2026-05-01 09:31 | 9.50853 | -69.20049 | 40904 ft | 436 kts | 231° |
| 2026-05-01 09:32 | 9.44837 | -69.26956 | 40901 ft | 435 kts | 231° |
| 2026-05-01 09:32 | 9.38822 | -69.33858 | 40900 ft | 436 kts | 231° |
| 2026-05-01 09:33 | 9.34815 | -69.38453 | 40889 ft | 436 kts | 231° |
| 2026-05-01 09:34 | 9.28794 | -69.45355 | 40903 ft | 435 kts | 231° |
| 2026-05-01 09:34 | 9.22801 | -69.52221 | 40902 ft | 436 kts | 231° |
| 2026-05-01 09:35 | 9.16781 | -69.59114 | 40891 ft | 435 kts | 231° |
| 2026-05-01 09:36 | 9.12773 | -69.63702 | 40894 ft | 435 kts | 231° |
| 2026-05-01 09:36 | 9.08759 | -69.68293 | 40894 ft | 435 kts | 231° |
| 2026-05-01 09:37 | 9.04772 | -69.72853 | 40891 ft | 435 kts | 231° |
| 2026-05-01 09:37 | 8.98753 | -69.79734 | 40905 ft | 435 kts | 231° |
| 2026-05-01 09:38 | 8.92731 | -69.86614 | 40892 ft | 435 kts | 230° |
| 2026-05-01 09:39 | 8.86703 | -69.93499 | 40905 ft | 436 kts | 230° |
| 2026-05-01 09:39 | 8.82709 | -69.98057 | 40889 ft | 436 kts | 230° |
| 2026-05-01 09:40 | 8.76676 | -70.04939 | 40891 ft | 436 kts | 230° |
| 2026-05-01 09:41 | 8.72648 | -70.09532 | 40905 ft | 436 kts | 230° |
| 2026-05-01 09:41 | 8.66610 | -70.16413 | 40891 ft | 436 kts | 230° |
| 2026-05-01 09:42 | 8.62584 | -70.21001 | 40906 ft | 436 kts | 230° |
| 2026-05-01 09:43 | 8.54405 | -70.30042 | 40892 ft | 438 kts | 229° |
| 2026-05-01 09:43 | 8.50254 | -70.34578 | 40908 ft | 440 kts | 229° |
| 2026-05-01 09:44 | 8.44027 | -70.41399 | 40908 ft | 440 kts | 229° |
| 2026-05-01 09:45 | 8.39909 | -70.45914 | 40894 ft | 440 kts | 229° |
| 2026-05-01 09:45 | 8.33687 | -70.52734 | 40913 ft | 440 kts | 229° |
| 2026-05-01 09:46 | 8.29539 | -70.57277 | 40897 ft | 440 kts | 229° |
| 2026-05-01 09:46 | 8.25383 | -70.61829 | 40916 ft | 441 kts | 229° |
| 2026-05-01 09:47 | 8.21224 | -70.66382 | 40915 ft | 442 kts | 229° |
| 2026-05-01 09:47 | 8.17047 | -70.70954 | 40919 ft | 444 kts | 229° |
| 2026-05-01 09:48 | 8.12883 | -70.75510 | 40924 ft | 444 kts | 229° |
| 2026-05-01 09:48 | 8.08694 | -70.80092 | 40923 ft | 444 kts | 229° |
| 2026-05-01 09:49 | 8.04502 | -70.84674 | 40922 ft | 444 kts | 229° |
| 2026-05-01 09:49 | 8.00310 | -70.89256 | 40922 ft | 444 kts | 229° |
| 2026-05-01 09:50 | 7.96119 | -70.93835 | 40919 ft | 444 kts | 229° |
| 2026-05-01 09:50 | 7.91925 | -70.98416 | 40919 ft | 444 kts | 229° |
| 2026-05-01 09:51 | 7.87730 | -71.02995 | 40909 ft | 444 kts | 229° |
| 2026-05-01 09:51 | 7.83563 | -71.07544 | 40911 ft | 444 kts | 229° |
| 2026-05-01 09:52 | 7.79367 | -71.12122 | 40914 ft | 444 kts | 229° |
| 2026-05-01 09:52 | 7.75175 | -71.16694 | 40914 ft | 444 kts | 229° |
| 2026-05-01 09:53 | 7.70981 | -71.21268 | 40911 ft | 444 kts | 229° |
| 2026-05-01 09:53 | 7.66784 | -71.25842 | 40911 ft | 444 kts | 229° |
| 2026-05-01 09:54 | 7.62586 | -71.30418 | 40922 ft | 444 kts | 229° |
| 2026-05-01 09:54 | 7.58392 | -71.34986 | 40908 ft | 444 kts | 229° |
| 2026-05-01 09:55 | 7.54224 | -71.39526 | 40909 ft | 444 kts | 229° |
| 2026-05-01 09:55 | 7.50021 | -71.44103 | 40911 ft | 445 kts | 229° |
| 2026-05-01 09:56 | 7.45809 | -71.48687 | 40905 ft | 446 kts | 229° |
| 2026-05-01 09:56 | 7.41597 | -71.53270 | 40906 ft | 446 kts | 229° |
| 2026-05-01 09:57 | 7.37379 | -71.57857 | 40912 ft | 445 kts | 229° |
| 2026-05-01 09:57 | 7.33191 | -71.62412 | 40911 ft | 445 kts | 229° |
| 2026-05-01 09:58 | 7.28983 | -71.66986 | 40914 ft | 445 kts | 229° |
| 2026-05-01 09:58 | 7.24768 | -71.71567 | 40919 ft | 445 kts | 229° |
| 2026-05-01 09:59 | 7.20552 | -71.76148 | 40920 ft | 445 kts | 229° |
| 2026-05-01 09:59 | 7.16333 | -71.80731 | 40922 ft | 447 kts | 229° |
| 2026-05-01 10:00 | 7.12099 | -71.85327 | 40936 ft | 447 kts | 229° |
| 2026-05-01 10:00 | 7.07867 | -71.89920 | 40935 ft | 447 kts | 229° |
| 2026-05-01 10:01 | 7.03665 | -71.94480 | 40933 ft | 447 kts | 229° |
| 2026-05-01 10:01 | 6.99753 | -71.99211 | 40892 ft | 427 kts | 238° |
| 2026-05-01 10:02 | 6.97352 | -72.04645 | 40913 ft | 428 kts | 256° |
| 2026-05-01 10:02 | 6.96834 | -72.10652 | 40932 ft | 435 kts | 274° |
| 2026-05-01 10:03 | 6.98265 | -72.16529 | 40973 ft | 434 kts | 294° |
| 2026-05-01 10:03 | 7.01758 | -72.21530 | 40995 ft | 443 kts | 312° |
| 2026-05-01 10:04 | 7.06754 | -72.25248 | 40995 ft | 453 kts | 330° |
| 2026-05-01 10:04 | 7.12794 | -72.27180 | 41032 ft | 463 kts | 350° |
| 2026-05-01 10:05 | 7.19209 | -72.26809 | 41036 ft | 472 kts | 12° |
| 2026-05-01 10:05 | 7.22315 | -72.25696 | 41031 ft | 476 kts | 23° |
| 2026-05-01 10:05 | 7.25168 | -72.23997 | 40976 ft | 479 kts | 35° |
| 2026-05-01 10:06 | 7.29942 | -72.19281 | 40991 ft | 482 kts | 46° |
| 2026-05-01 10:06 | 7.34419 | -72.14291 | 40994 ft | 482 kts | 45° |
| 2026-05-01 10:07 | 7.38391 | -72.08948 | 40956 ft | 475 kts | 66° |
| 2026-05-01 10:07 | 7.39377 | -72.05774 | 40959 ft | 478 kts | 78° |
| 2026-05-01 10:07 | 7.39846 | -72.02438 | 40955 ft | 482 kts | 85° |
| 2026-05-01 10:08 | 7.39684 | -71.95662 | 40936 ft | 487 kts | 100° |
| 2026-05-01 10:08 | 7.38885 | -71.92379 | 40931 ft | 479 kts | 112° |
| 2026-05-01 10:08 | 7.37355 | -71.89426 | 40933 ft | 474 kts | 129° |
| 2026-05-01 10:09 | 7.35957 | -71.87747 | 40931 ft | 470 kts | 138° |
| 2026-05-01 10:09 | 7.33462 | -71.85639 | 40931 ft | 467 kts | 149° |
| 2026-05-01 10:09 | 7.30661 | -71.84015 | 40922 ft | 464 kts | 159° |
| 2026-05-01 10:10 | 7.24526 | -71.82282 | 40925 ft | 456 kts | 178° |
| 2026-05-01 10:10 | 7.15396 | -71.83862 | 40924 ft | 443 kts | 208° |
| 2026-05-01 10:11 | 7.10440 | -71.87413 | 40937 ft | 437 kts | 225° |
| 2026-05-01 10:11 | 7.06165 | -71.91764 | 40940 ft | 437 kts | 228° |
| 2026-05-01 10:12 | 7.02017 | -71.96211 | 40914 ft | 437 kts | 230° |
| 2026-05-01 10:12 | 6.98635 | -72.01136 | 40926 ft | 427 kts | 245° |
| 2026-05-01 10:13 | 6.97543 | -72.03925 | 40931 ft | 430 kts | 254° |
| 2026-05-01 10:13 | 6.96740 | -72.09908 | 40938 ft | 432 kts | 271° |
| 2026-05-01 10:14 | 6.98005 | -72.15795 | 40980 ft | 436 kts | 291° |
| 2026-05-01 10:14 | 6.99400 | -72.18516 | 40994 ft | 440 kts | 300° |
| 2026-05-01 10:14 | 7.03415 | -72.23213 | 40998 ft | 449 kts | 317° |
| 2026-05-01 10:15 | 7.05922 | -72.25008 | 40997 ft | 447 kts | 328° |
| 2026-05-01 10:15 | 7.08805 | -72.26197 | 41036 ft | 451 kts | 342° |
| 2026-05-01 10:15 | 7.11918 | -72.26713 | 41035 ft | 457 kts | 354° |
| 2026-05-01 10:15 | 7.15110 | -72.26643 | 41035 ft | 461 kts | 3° |
| 2026-05-01 10:16 | 7.21342 | -72.24967 | 40980 ft | 469 kts | 24° |
| 2026-05-01 10:16 | 7.26627 | -72.21103 | 40995 ft | 474 kts | 42° |
| 2026-05-01 10:17 | 7.28941 | -72.18724 | 40991 ft | 475 kts | 44° |
| 2026-05-01 10:17 | 7.35767 | -72.11440 | 40956 ft | 479 kts | 48° |
| 2026-05-01 10:18 | 7.39384 | -72.05786 | 40957 ft | 481 kts | 68° |
| 2026-05-01 10:18 | 7.40313 | -72.02543 | 40957 ft | 484 kts | 81° |
| 2026-05-01 10:18 | 7.40567 | -71.99166 | 40959 ft | 485 kts | 92° |
| 2026-05-01 10:19 | 7.40233 | -71.95827 | 40938 ft | 486 kts | 102° |
| 2026-05-01 10:19 | 7.39311 | -71.92581 | 40930 ft | 478 kts | 115° |
| 2026-05-01 10:19 | 7.37702 | -71.89674 | 40932 ft | 473 kts | 130° |
| 2026-05-01 10:20 | 7.32888 | -71.85283 | 40937 ft | 467 kts | 151° |
| 2026-05-01 10:20 | 7.30021 | -71.83753 | 40925 ft | 464 kts | 160° |
| 2026-05-01 10:20 | 7.23831 | -71.82220 | 40925 ft | 456 kts | 180° |
| 2026-05-01 10:21 | 7.14814 | -71.84140 | 40936 ft | 443 kts | 211° |
| 2026-05-01 10:22 | 7.07817 | -71.90024 | 40939 ft | 437 kts | 227° |
| 2026-05-01 10:23 | 7.01560 | -71.96725 | 40911 ft | 434 kts | 231° |
| 2026-05-01 10:23 | 6.98345 | -72.01744 | 40928 ft | 428 kts | 247° |
| 2026-05-01 10:23 | 6.97347 | -72.04584 | 40933 ft | 432 kts | 256° |
| 2026-05-01 10:24 | 6.96752 | -72.10563 | 40941 ft | 431 kts | 274° |
| 2026-05-01 10:24 | 6.98251 | -72.16393 | 40985 ft | 437 kts | 293° |
| 2026-05-01 10:25 | 7.01647 | -72.21522 | 40998 ft | 445 kts | 310° |
| 2026-05-01 10:25 | 7.06535 | -72.25341 | 41001 ft | 448 kts | 332° |
| 2026-05-01 10:26 | 7.09493 | -72.26372 | 41035 ft | 453 kts | 345° |
| 2026-05-01 10:26 | 7.12633 | -72.26751 | 41035 ft | 458 kts | 356° |
| 2026-05-01 10:26 | 7.18944 | -72.25887 | 41034 ft | 466 kts | 14° |
| 2026-05-01 10:27 | 7.24721 | -72.22872 | 40997 ft | 473 kts | 36° |
| 2026-05-01 10:28 | 7.31788 | -72.15850 | 40990 ft | 477 kts | 44° |
| 2026-05-01 10:28 | 7.38247 | -72.08197 | 40957 ft | 480 kts | 59° |
| 2026-05-01 10:29 | 7.40373 | -72.01837 | 40965 ft | 485 kts | 83° |
| 2026-05-01 10:29 | 7.40535 | -71.98438 | 40966 ft | 487 kts | 93° |
| 2026-05-01 10:30 | 7.38921 | -71.92021 | 40942 ft | 476 kts | 120° |
| 2026-05-01 10:30 | 7.34841 | -71.86862 | 40939 ft | 471 kts | 142° |
| 2026-05-01 10:31 | 7.29332 | -71.83409 | 40928 ft | 465 kts | 162° |
| 2026-05-01 10:31 | 7.23091 | -71.82103 | 40927 ft | 455 kts | 183° |
| 2026-05-01 10:32 | 7.16943 | -71.83152 | 40929 ft | 446 kts | 203° |
| 2026-05-01 10:32 | 7.14153 | -71.84482 | 40941 ft | 442 kts | 213° |
| 2026-05-01 10:32 | 7.09461 | -71.88351 | 40941 ft | 438 kts | 226° |
| 2026-05-01 10:33 | 7.05221 | -71.92765 | 40943 ft | 439 kts | 228° |
| 2026-05-01 10:34 | 6.99386 | -71.99731 | 40922 ft | 427 kts | 240° |
| 2026-05-01 10:34 | 6.97165 | -72.05299 | 40934 ft | 433 kts | 258° |
| 2026-05-01 10:35 | 6.96825 | -72.11314 | 40946 ft | 431 kts | 277° |
| 2026-05-01 10:35 | 6.97463 | -72.14262 | 40974 ft | 434 kts | 286° |
| 2026-05-01 10:35 | 7.00184 | -72.19731 | 41003 ft | 443 kts | 303° |
| 2026-05-01 10:36 | 7.04495 | -72.24106 | 41000 ft | 444 kts | 324° |
| 2026-05-01 10:36 | 7.07254 | -72.25535 | 41039 ft | 449 kts | 336° |
| 2026-05-01 10:36 | 7.10292 | -72.26363 | 41038 ft | 454 kts | 347° |
| 2026-05-01 10:37 | 7.13462 | -72.26641 | 41039 ft | 459 kts | 357° |
| 2026-05-01 10:37 | 7.19814 | -72.25676 | 41037 ft | 468 kts | 16° |
| 2026-05-01 10:37 | 7.22805 | -72.24351 | 41007 ft | 472 kts | 27° |
| 2026-05-01 10:38 | 7.25515 | -72.22472 | 40997 ft | 475 kts | 38° |
| 2026-05-01 10:38 | 7.27933 | -72.20200 | 40991 ft | 476 kts | 43° |
| 2026-05-01 10:38 | 7.32527 | -72.15374 | 41000 ft | 478 kts | 45° |
| 2026-05-01 10:39 | 7.36960 | -72.10406 | 40967 ft | 483 kts | 52° |
| 2026-05-01 10:39 | 7.38775 | -72.07582 | 40956 ft | 476 kts | 63° |
| 2026-05-01 10:39 | 7.39870 | -72.04446 | 40960 ft | 477 kts | 79° |
| 2026-05-01 10:40 | 7.40173 | -72.01111 | 40969 ft | 479 kts | 91° |
| 2026-05-01 10:40 | 7.39940 | -71.97753 | 40943 ft | 482 kts | 99° |
| 2026-05-01 10:40 | 7.38145 | -71.91254 | 40942 ft | 483 kts | 117° |
| 2026-05-01 10:41 | 7.36449 | -71.88349 | 40937 ft | 480 kts | 130° |
| 2026-05-01 10:41 | 7.34181 | -71.85893 | 40940 ft | 476 kts | 143° |
| 2026-05-01 10:41 | 7.28492 | -71.82694 | 40930 ft | 466 kts | 166° |
| 2026-05-01 10:42 | 7.25344 | -71.82007 | 40933 ft | 461 kts | 177° |
| 2026-05-01 10:42 | 7.22164 | -71.81922 | 40933 ft | 455 kts | 188° |
| 2026-05-01 10:42 | 7.19054 | -71.82409 | 40929 ft | 451 kts | 197° |
| 2026-05-01 10:43 | 7.13422 | -71.84919 | 40944 ft | 444 kts | 217° |
| 2026-05-01 10:43 | 7.08824 | -71.88999 | 40944 ft | 440 kts | 227° |
| 2026-05-01 10:44 | 7.04579 | -71.93457 | 40942 ft | 441 kts | 228° |
| 2026-05-01 10:44 | 7.00516 | -71.98033 | 40916 ft | 430 kts | 235° |
| 2026-05-01 10:45 | 6.97709 | -72.03317 | 40934 ft | 432 kts | 252° |
| 2026-05-01 10:45 | 6.96703 | -72.09241 | 40945 ft | 430 kts | 270° |
| 2026-05-01 10:46 | 6.97788 | -72.15175 | 40982 ft | 437 kts | 289° |
| 2026-05-01 10:46 | 7.00739 | -72.20499 | 41003 ft | 438 kts | 308° |
| 2026-05-01 10:46 | 7.02944 | -72.22627 | 41004 ft | 442 kts | 320° |
| 2026-05-01 10:47 | 7.05533 | -72.24340 | 41004 ft | 447 kts | 329° |
| 2026-05-01 10:47 | 7.11401 | -72.26461 | 41044 ft | 457 kts | 347° |
| 2026-05-01 10:48 | 7.17804 | -72.26558 | 41039 ft | 467 kts | 7° |
| 2026-05-01 10:48 | 7.20953 | -72.25729 | 41040 ft | 471 kts | 18° |
| 2026-05-01 10:48 | 7.23912 | -72.24284 | 40997 ft | 475 kts | 30° |
| 2026-05-01 10:48 | 7.26526 | -72.22250 | 40992 ft | 477 kts | 42° |
| 2026-05-01 10:49 | 7.28862 | -72.19864 | 41001 ft | 479 kts | 45° |
| 2026-05-01 10:49 | 7.33362 | -72.14898 | 41007 ft | 480 kts | 45° |
| 2026-05-01 10:50 | 7.37590 | -72.09739 | 40971 ft | 478 kts | 59° |
| 2026-05-01 10:50 | 7.39955 | -72.03478 | 40968 ft | 486 kts | 77° |
| 2026-05-01 10:51 | 7.40350 | -71.96762 | 40944 ft | 480 kts | 102° |
| 2026-05-01 10:51 | 7.39444 | -71.93533 | 40945 ft | 479 kts | 114° |
| 2026-05-01 10:51 | 7.37952 | -71.90546 | 40942 ft | 478 kts | 124° |
| 2026-05-01 10:51 | 7.35961 | -71.87880 | 40945 ft | 476 kts | 135° |
| 2026-05-01 10:52 | 7.33532 | -71.85637 | 40942 ft | 473 kts | 146° |
| 2026-05-01 10:52 | 7.30764 | -71.83882 | 40936 ft | 469 kts | 157° |
| 2026-05-01 10:52 | 7.27751 | -71.82681 | 40937 ft | 464 kts | 168° |
| 2026-05-01 10:52 | 7.24603 | -71.82074 | 40936 ft | 459 kts | 179° |
| 2026-05-01 10:53 | 7.21431 | -71.82070 | 40933 ft | 454 kts | 189° |
| 2026-05-01 10:53 | 7.15442 | -71.83761 | 40932 ft | 445 kts | 209° |
| 2026-05-01 10:54 | 7.10470 | -71.87368 | 40945 ft | 440 kts | 225° |
| 2026-05-01 10:54 | 7.06199 | -71.91724 | 40949 ft | 440 kts | 228° |
| 2026-05-01 10:55 | 7.02006 | -71.96216 | 40918 ft | 440 kts | 230° |
| 2026-05-01 10:55 | 7.00113 | -71.98594 | 40916 ft | 429 kts | 237° |
| 2026-05-01 10:55 | 6.98597 | -72.01171 | 40927 ft | 428 kts | 245° |
| 2026-05-01 10:56 | 6.96871 | -72.06927 | 40938 ft | 434 kts | 263° |
| 2026-05-01 10:56 | 6.97127 | -72.12928 | 40975 ft | 432 kts | 282° |
| 2026-05-01 10:57 | 6.99431 | -72.18520 | 41001 ft | 441 kts | 300° |
| 2026-05-01 10:57 | 7.03404 | -72.23215 | 41003 ft | 442 kts | 319° |
| 2026-05-01 10:57 | 7.06019 | -72.24862 | 41006 ft | 447 kts | 332° |
| 2026-05-01 10:58 | 7.08958 | -72.25927 | 41045 ft | 452 kts | 343° |
| 2026-05-01 10:58 | 7.15272 | -72.26497 | 41043 ft | 462 kts | 1° |
| 2026-05-01 10:59 | 7.21512 | -72.25020 | 40999 ft | 470 kts | 22° |
| 2026-05-01 10:59 | 7.24381 | -72.23403 | 40998 ft | 474 kts | 33° |
| 2026-05-01 10:59 | 7.26901 | -72.21264 | 41003 ft | 476 kts | 42° |
| 2026-05-01 11:00 | 7.30759 | -72.17281 | 41000 ft | 478 kts | 45° |
| 2026-05-01 11:00 | 7.35322 | -72.12393 | 40999 ft | 479 kts | 46° |
| 2026-05-01 11:01 | 7.39033 | -72.06835 | 40969 ft | 480 kts | 67° |
| 2026-05-01 11:01 | 7.40018 | -72.03611 | 40968 ft | 483 kts | 79° |
| 2026-05-01 11:01 | 7.40421 | -72.00245 | 40973 ft | 486 kts | 88° |
| 2026-05-01 11:02 | 7.39521 | -71.93599 | 40947 ft | 477 kts | 114° |
| 2026-05-01 11:02 | 7.38019 | -71.90630 | 40946 ft | 475 kts | 126° |
| 2026-05-01 11:02 | 7.35988 | -71.88024 | 40943 ft | 472 kts | 137° |
| 2026-05-01 11:03 | 7.30812 | -71.84098 | 40944 ft | 467 kts | 156° |
| 2026-05-01 11:03 | 7.27822 | -71.82864 | 40936 ft | 463 kts | 167° |
| 2026-05-01 11:03 | 7.24687 | -71.82202 | 40935 ft | 458 kts | 178° |
| 2026-05-01 11:04 | 7.18438 | -71.82670 | 40936 ft | 448 kts | 198° |
| 2026-05-01 11:04 | 7.12883 | -71.85310 | 40946 ft | 441 kts | 218° |
| 2026-05-01 11:05 | 7.08376 | -71.89444 | 40950 ft | 438 kts | 227° |
| 2026-05-01 11:05 | 7.04163 | -71.93896 | 40950 ft | 439 kts | 228° |
| 2026-05-01 11:06 | 7.00176 | -71.98502 | 40917 ft | 428 kts | 237° |
| 2026-05-01 11:06 | 6.97549 | -72.03842 | 40936 ft | 430 kts | 253° |
| 2026-05-01 11:07 | 6.96731 | -72.09753 | 40944 ft | 428 kts | 271° |
| 2026-05-01 11:07 | 6.97100 | -72.12732 | 40976 ft | 431 kts | 282° |
| 2026-05-01 11:07 | 6.99364 | -72.18362 | 41002 ft | 440 kts | 299° |
| 2026-05-01 11:08 | 7.03296 | -72.23096 | 41005 ft | 441 kts | 318° |
| 2026-05-01 11:08 | 7.08827 | -72.25860 | 41044 ft | 452 kts | 342° |
| 2026-05-01 11:09 | 7.11904 | -72.26420 | 40994 ft | 460 kts | 351° |
| 2026-05-01 11:09 | 7.15138 | -72.26579 | 40886 ft | 467 kts | 357° |
| 2026-05-01 11:09 | 7.18398 | -72.26393 | 40755 ft | 472 kts | 4° |
| 2026-05-01 11:10 | 7.24672 | -72.24398 | 40462 ft | 480 kts | 28° |
| 2026-05-01 11:10 | 7.27379 | -72.22424 | 40338 ft | 484 kts | 39° |
| 2026-05-01 11:10 | 7.29818 | -72.20063 | 40216 ft | 487 kts | 46° |
| 2026-05-01 11:10 | 7.31928 | -72.17386 | 40096 ft | 489 kts | 56° |
| 2026-05-01 11:11 | 7.33567 | -72.14387 | 39979 ft | 491 kts | 66° |
| 2026-05-01 11:11 | 7.34631 | -72.11125 | 39829 ft | 491 kts | 78° |
| 2026-05-01 11:11 | 7.35053 | -72.07719 | 39712 ft | 490 kts | 90° |
| 2026-05-01 11:11 | 7.34816 | -72.04302 | 39587 ft | 489 kts | 101° |
| 2026-05-01 11:12 | 7.33942 | -72.01009 | 39473 ft | 487 kts | 112° |
| 2026-05-01 11:12 | 7.32473 | -71.97950 | 39364 ft | 484 kts | 124° |
| 2026-05-01 11:12 | 7.30483 | -71.95238 | 39201 ft | 480 kts | 135° |
| 2026-05-01 11:12 | 7.28050 | -71.93024 | 38988 ft | 475 kts | 147° |
| 2026-05-01 11:13 | 7.25245 | -71.91277 | 38757 ft | 472 kts | 156° |
| 2026-05-01 11:13 | 7.22197 | -71.90089 | 38522 ft | 469 kts | 167° |
| 2026-05-01 11:13 | 7.19000 | -71.89528 | 38253 ft | 464 kts | 181° |
| 2026-05-01 11:13 | 7.15830 | -71.89851 | 37984 ft | 456 kts | 197° |
| 2026-05-01 11:14 | 7.12791 | -71.90781 | 37718 ft | 456 kts | 198° |
| 2026-05-01 11:14 | 7.09765 | -71.91764 | 37463 ft | 457 kts | 203° |
| 2026-05-01 11:14 | 7.06898 | -71.93127 | 37213 ft | 456 kts | 212° |
| 2026-05-01 11:14 | 7.04215 | -71.94828 | 36967 ft | 456 kts | 216° |
| 2026-05-01 11:15 | 7.01744 | -71.96824 | 36672 ft | 455 kts | 227° |
| 2026-05-01 11:15 | 6.99678 | -71.99203 | 36437 ft | 456 kts | 232° |
| 2026-05-01 11:15 | 6.97697 | -72.01704 | 36200 ft | 458 kts | 232° |
| 2026-05-01 11:15 | 6.95733 | -72.04225 | 35963 ft | 459 kts | 233° |
| 2026-05-01 11:16 | 6.93757 | -72.06767 | 35734 ft | 461 kts | 232° |
| 2026-05-01 11:16 | 6.91777 | -72.09308 | 35503 ft | 462 kts | 232° |
| 2026-05-01 11:16 | 6.89787 | -72.11860 | 35303 ft | 464 kts | 232° |
| 2026-05-01 11:16 | 6.87789 | -72.14419 | 35077 ft | 465 kts | 232° |
| 2026-05-01 11:17 | 6.85784 | -72.16987 | 34861 ft | 466 kts | 232° |
| 2026-05-01 11:17 | 6.83774 | -72.19561 | 34646 ft | 468 kts | 232° |
| 2026-05-01 11:17 | 6.81760 | -72.22137 | 34414 ft | 469 kts | 232° |
| 2026-05-01 11:17 | 6.79741 | -72.24721 | 34224 ft | 471 kts | 232° |
| 2026-05-01 11:18 | 6.77742 | -72.27278 | 34036 ft | 472 kts | 232° |
| 2026-05-01 11:18 | 6.75703 | -72.29886 | 33768 ft | 474 kts | 232° |
| 2026-05-01 11:18 | 6.73666 | -72.32491 | 33513 ft | 474 kts | 232° |
| 2026-05-01 11:18 | 6.71621 | -72.35106 | 33264 ft | 475 kts | 232° |
| 2026-05-01 11:19 | 6.69580 | -72.37716 | 33006 ft | 475 kts | 232° |
| 2026-05-01 11:19 | 6.67531 | -72.40334 | 32771 ft | 476 kts | 232° |
| 2026-05-01 11:19 | 6.65485 | -72.42949 | 32519 ft | 476 kts | 232° |
| 2026-05-01 11:19 | 6.63434 | -72.45570 | 32304 ft | 476 kts | 232° |
| 2026-05-01 11:20 | 6.61382 | -72.48192 | 32057 ft | 477 kts | 231° |
| 2026-05-01 11:20 | 6.59328 | -72.50816 | 31810 ft | 477 kts | 231° |
| 2026-05-01 11:20 | 6.57274 | -72.53439 | 31565 ft | 478 kts | 231° |
| 2026-05-01 11:20 | 6.55216 | -72.56067 | 31326 ft | 478 kts | 231° |
| 2026-05-01 11:21 | 6.53163 | -72.58689 | 31091 ft | 477 kts | 231° |
| 2026-05-01 11:21 | 6.51118 | -72.61300 | 30862 ft | 474 kts | 231° |
| 2026-05-01 11:21 | 6.49083 | -72.63898 | 30634 ft | 471 kts | 231° |
| 2026-05-01 11:21 | 6.47071 | -72.66466 | 30410 ft | 469 kts | 231° |
| 2026-05-01 11:22 | 6.45072 | -72.69017 | 30152 ft | 467 kts | 231° |
| 2026-05-01 11:22 | 6.43064 | -72.71579 | 29893 ft | 466 kts | 231° |
| 2026-05-01 11:22 | 6.41062 | -72.74133 | 29626 ft | 465 kts | 231° |
| 2026-05-01 11:22 | 6.39061 | -72.76686 | 29369 ft | 463 kts | 231° |
| 2026-05-01 11:23 | 6.37066 | -72.79230 | 29117 ft | 462 kts | 231° |
| 2026-05-01 11:23 | 6.35079 | -72.81764 | 28845 ft | 461 kts | 231° |
| 2026-05-01 11:23 | 6.33096 | -72.84291 | 28574 ft | 460 kts | 231° |
| 2026-05-01 11:23 | 6.31117 | -72.86814 | 28318 ft | 459 kts | 231° |
| 2026-05-01 11:24 | 6.29144 | -72.89330 | 28074 ft | 458 kts | 231° |
| 2026-05-01 11:24 | 6.27173 | -72.91842 | 27824 ft | 456 kts | 231° |
| 2026-05-01 11:24 | 6.23273 | -72.96813 | 27359 ft | 455 kts | 230° |
| 2026-05-01 11:25 | 6.21291 | -72.99336 | 27125 ft | 454 kts | 230° |
| 2026-05-01 11:25 | 6.17406 | -73.04285 | 26633 ft | 452 kts | 230° |
| 2026-05-01 11:25 | 6.15455 | -73.06770 | 26398 ft | 452 kts | 230° |
| 2026-05-01 11:26 | 6.13509 | -73.09250 | 26147 ft | 451 kts | 230° |
| 2026-05-01 11:26 | 6.09626 | -73.14193 | 25719 ft | 450 kts | 230° |
| 2026-05-01 11:26 | 6.07685 | -73.16664 | 25491 ft | 449 kts | 230° |
| 2026-05-01 11:27 | 6.05748 | -73.19128 | 25261 ft | 448 kts | 230° |
| 2026-05-01 11:27 | 6.03817 | -73.21585 | 25029 ft | 447 kts | 230° |
| 2026-05-01 11:27 | 6.01912 | -73.24009 | 24797 ft | 447 kts | 230° |
| 2026-05-01 11:27 | 5.99993 | -73.26451 | 24572 ft | 446 kts | 230° |
| 2026-05-01 11:28 | 5.98072 | -73.28895 | 24346 ft | 445 kts | 230° |
| 2026-05-01 11:28 | 5.96154 | -73.31334 | 24170 ft | 444 kts | 230° |
| 2026-05-01 11:28 | 5.94234 | -73.33776 | 23964 ft | 444 kts | 230° |
| 2026-05-01 11:29 | 5.90409 | -73.38640 | 23476 ft | 443 kts | 230° |
| 2026-05-01 11:29 | 5.88501 | -73.41067 | 23221 ft | 441 kts | 230° |
| 2026-05-01 11:29 | 5.84636 | -73.45830 | 22701 ft | 437 kts | 225° |
| 2026-05-01 11:30 | 5.82396 | -73.47874 | 22485 ft | 433 kts | 217° |
| 2026-05-01 11:30 | 5.80008 | -73.49701 | 22255 ft | 431 kts | 214° |
| 2026-05-01 11:30 | 5.77629 | -73.51459 | 21997 ft | 429 kts | 214° |
| 2026-05-01 11:30 | 5.75227 | -73.53228 | 21744 ft | 427 kts | 214° |
| 2026-05-01 11:31 | 5.72833 | -73.54994 | 21501 ft | 426 kts | 214° |
| 2026-05-01 11:31 | 5.70449 | -73.56757 | 21257 ft | 424 kts | 214° |
| 2026-05-01 11:31 | 5.68073 | -73.58514 | 21059 ft | 423 kts | 214° |
| 2026-05-01 11:31 | 5.65707 | -73.60266 | 20820 ft | 421 kts | 214° |
| 2026-05-01 11:32 | 5.63352 | -73.62012 | 20582 ft | 420 kts | 214° |
| 2026-05-01 11:32 | 5.61002 | -73.63753 | 20354 ft | 418 kts | 214° |
| 2026-05-01 11:32 | 5.58694 | -73.65463 | 20095 ft | 417 kts | 214° |
| 2026-05-01 11:32 | 5.56360 | -73.67192 | 19865 ft | 416 kts | 214° |
| 2026-05-01 11:33 | 5.54033 | -73.68916 | 19672 ft | 414 kts | 214° |
| 2026-05-01 11:33 | 5.51721 | -73.70629 | 19440 ft | 413 kts | 214° |
| 2026-05-01 11:33 | 5.49411 | -73.72340 | 19223 ft | 412 kts | 214° |
| 2026-05-01 11:33 | 5.47111 | -73.74044 | 19007 ft | 410 kts | 214° |
| 2026-05-01 11:34 | 5.44829 | -73.75760 | 18777 ft | 409 kts | 216° |
| 2026-05-01 11:34 | 5.42765 | -73.77733 | 18550 ft | 411 kts | 227° |
| 2026-05-01 11:34 | 5.41158 | -73.80109 | 18319 ft | 413 kts | 240° |
| 2026-05-01 11:34 | 5.40052 | -73.82767 | 18164 ft | 414 kts | 248° |
| 2026-05-01 11:35 | 5.39109 | -73.85501 | 18082 ft | 415 kts | 250° |
| 2026-05-01 11:35 | 5.38192 | -73.88236 | 18107 ft | 413 kts | 249° |
| 2026-05-01 11:35 | 5.37270 | -73.90972 | 18145 ft | 413 kts | 249° |
| 2026-05-01 11:35 | 5.36344 | -73.93707 | 18106 ft | 414 kts | 249° |
| 2026-05-01 11:36 | 5.35431 | -73.96393 | 18099 ft | 396 kts | 249° |
| 2026-05-01 11:36 | 5.34563 | -73.98946 | 18104 ft | 379 kts | 249° |
| 2026-05-01 11:36 | 5.33717 | -74.01423 | 18109 ft | 374 kts | 249° |
| 2026-05-01 11:36 | 5.32871 | -74.03894 | 18105 ft | 373 kts | 249° |
| 2026-05-01 11:37 | 5.32028 | -74.06354 | 18099 ft | 371 kts | 249° |
| 2026-05-01 11:37 | 5.31218 | -74.08721 | 18050 ft | 355 kts | 249° |
| 2026-05-01 11:37 | 5.30426 | -74.11037 | 18061 ft | 348 kts | 249° |
| 2026-05-01 11:37 | 5.29640 | -74.13328 | 18057 ft | 347 kts | 249° |
| 2026-05-01 11:38 | 5.28853 | -74.15622 | 18057 ft | 347 kts | 249° |
| 2026-05-01 11:38 | 5.28067 | -74.17914 | 18055 ft | 347 kts | 249° |
| 2026-05-01 11:38 | 5.27281 | -74.20206 | 18093 ft | 347 kts | 249° |
| 2026-05-01 11:38 | 5.26495 | -74.22500 | 18044 ft | 347 kts | 249° |
| 2026-05-01 11:39 | 5.25709 | -74.24789 | 18036 ft | 346 kts | 248° |
| 2026-05-01 11:39 | 5.24911 | -74.27061 | 18044 ft | 345 kts | 248° |
| 2026-05-01 11:39 | 5.24101 | -74.29335 | 18042 ft | 347 kts | 248° |
| 2026-05-01 11:39 | 5.23449 | -74.31668 | 18038 ft | 349 kts | 260° |
| 2026-05-01 11:40 | 5.23388 | -74.34107 | 18032 ft | 351 kts | 271° |
| 2026-05-01 11:40 | 5.23559 | -74.36554 | 17998 ft | 352 kts | 273° |
| 2026-05-01 11:40 | 5.23770 | -74.39000 | 17993 ft | 352 kts | 274° |
| 2026-05-01 11:40 | 5.23981 | -74.41447 | 18002 ft | 353 kts | 274° |
| 2026-05-01 11:41 | 5.24186 | -74.43865 | 17990 ft | 352 kts | 273° |
| 2026-05-01 11:41 | 5.24162 | -74.46311 | 17990 ft | 350 kts | 258° |
| 2026-05-01 11:41 | 5.23519 | -74.48656 | 18000 ft | 348 kts | 249° |
| 2026-05-01 11:41 | 5.22683 | -74.50933 | 17967 ft | 348 kts | 247° |
| 2026-05-01 11:42 | 5.21821 | -74.53201 | 17960 ft | 348 kts | 248° |
| 2026-05-01 11:42 | 5.20962 | -74.55471 | 17946 ft | 347 kts | 248° |
| 2026-05-01 11:42 | 5.20105 | -74.57740 | 17942 ft | 347 kts | 247° |
| 2026-05-01 11:42 | 5.18999 | -74.59877 | 17936 ft | 344 kts | 231° |
| 2026-05-01 11:43 | 5.17408 | -74.61648 | 17937 ft | 341 kts | 223° |
| 2026-05-01 11:43 | 5.15699 | -74.63290 | 17922 ft | 338 kts | 221° |
| 2026-05-01 11:43 | 5.14030 | -74.64890 | 17925 ft | 323 kts | 221° |
| 2026-05-01 11:44 | 5.10764 | -74.67941 | 17933 ft | 331 kts | 219° |
| 2026-05-01 11:44 | 5.09033 | -74.69521 | 17917 ft | 338 kts | 216° |
| 2026-05-01 11:44 | 5.07052 | -74.70742 | 17925 ft | 333 kts | 200° |
| 2026-05-01 11:44 | 5.04903 | -74.71520 | 17925 ft | 332 kts | 194° |
| 2026-05-01 11:45 | 5.02700 | -74.72208 | 17928 ft | 332 kts | 194° |
| 2026-05-01 11:45 | 5.00466 | -74.72835 | 17670 ft | 331 kts | 188° |
| 2026-05-01 11:45 | 4.98207 | -74.72898 | 17295 ft | 322 kts | 167° |
| 2026-05-01 11:45 | 4.96146 | -74.72120 | 16964 ft | 315 kts | 145° |
| 2026-05-01 11:46 | 4.94574 | -74.70630 | 16693 ft | 312 kts | 124° |
| 2026-05-01 11:46 | 4.93687 | -74.68662 | 16410 ft | 312 kts | 103° |
| 2026-05-01 11:46 | 4.93374 | -74.66511 | 16116 ft | 312 kts | 96° |
| 2026-05-01 11:46 | 4.93199 | -74.64346 | 15865 ft | 308 kts | 95° |
| 2026-05-01 11:47 | 4.93041 | -74.62239 | 15692 ft | 298 kts | 95° |
| 2026-05-01 11:47 | 4.92881 | -74.60194 | 15526 ft | 289 kts | 96° |
| 2026-05-01 11:47 | 4.92720 | -74.58226 | 15261 ft | 285 kts | 96° |
| 2026-05-01 11:47 | 4.92554 | -74.56260 | 14970 ft | 282 kts | 96° |
| 2026-05-01 11:48 | 4.92387 | -74.54309 | 14658 ft | 280 kts | 96° |
| 2026-05-01 11:48 | 4.92218 | -74.52359 | 14306 ft | 281 kts | 96° |
| 2026-05-01 11:48 | 4.92105 | -74.51062 | 14066 ft | 281 kts | 96° |
| 2026-05-01 11:48 | 4.91879 | -74.48461 | 13662 ft | 278 kts | 96° |
| 2026-05-01 11:49 | 4.91768 | -74.47186 | 13457 ft | 276 kts | 96° |
| 2026-05-01 11:49 | 4.91601 | -74.45270 | 13181 ft | 275 kts | 96° |
| 2026-05-01 11:49 | 4.91427 | -74.43362 | 12864 ft | 274 kts | 98° |
| 2026-05-01 11:49 | 4.90953 | -74.41529 | 12632 ft | 271 kts | 116° |
| 2026-05-01 11:50 | 4.89922 | -74.39976 | 12515 ft | 262 kts | 128° |
| 2026-05-01 11:50 | 4.88760 | -74.38608 | 12398 ft | 253 kts | 131° |
| 2026-05-01 11:50 | 4.87630 | -74.37327 | 12309 ft | 242 kts | 131° |
| 2026-05-01 11:50 | 4.86540 | -74.36091 | 12225 ft | 230 kts | 131° |
| 2026-05-01 11:51 | 4.85508 | -74.34916 | 12148 ft | 219 kts | 130° |
| 2026-05-01 11:51 | 4.84519 | -74.33785 | 11949 ft | 213 kts | 130° |
| 2026-05-01 11:51 | 4.83547 | -74.32671 | 11694 ft | 211 kts | 130° |
| 2026-05-01 11:51 | 4.82543 | -74.31602 | 11463 ft | 208 kts | 141° |
| 2026-05-01 11:52 | 4.81485 | -74.30661 | 11353 ft | 199 kts | 130° |
| 2026-05-01 11:52 | 4.80663 | -74.29589 | 11269 ft | 189 kts | 126° |
| 2026-05-01 11:52 | 4.79897 | -74.28572 | 11136 ft | 180 kts | 127° |
| 2026-05-01 11:52 | 4.79158 | -74.27617 | 10968 ft | 165 kts | 127° |
| 2026-05-01 11:53 | 4.78482 | -74.26732 | 10764 ft | 155 kts | 127° |
| 2026-05-01 11:53 | 4.77839 | -74.25876 | 10584 ft | 153 kts | 126° |
| 2026-05-01 11:53 | 4.77197 | -74.25024 | 10420 ft | 153 kts | 127° |
| 2026-05-01 11:53 | 4.76555 | -74.24171 | 10230 ft | 154 kts | 127° |
| 2026-05-01 11:54 | 4.75908 | -74.23313 | 10044 ft | 153 kts | 127° |
| 2026-05-01 11:54 | 4.75267 | -74.22461 | 9850 ft | 153 kts | 127° |
| 2026-05-01 11:54 | 4.74629 | -74.21613 | 9684 ft | 152 kts | 127° |
| 2026-05-01 11:54 | 4.73992 | -74.20769 | 9505 ft | 152 kts | 126° |
| 2026-05-01 11:55 | 4.73367 | -74.19939 | 9297 ft | 151 kts | 126° |
| 2026-05-01 11:55 | 4.72739 | -74.19105 | 9078 ft | 150 kts | 126° |
| 2026-05-01 11:55 | 4.72111 | -74.18271 | 8833 ft | 149 kts | 125° |
| 2026-05-01 11:55 | 4.71491 | -74.17448 | 8550 ft | 147 kts | 124° |
| 2026-05-01 11:56 | 4.70852 | -74.16650 | 8431 ft | 146 kts | 126° |
| 2026-05-01 11:56 | 4.70257 | -74.15839 | 8387 ft | 144 kts | 126° |
| 2026-05-01 11:56 | 4.69734 | -74.15132 | 8373 ft | 100 kts | 128° |
| 2026-05-01 11:56 | 4.69422 | -74.14745 | 8370 ft | 45 kts | 128° |
| 2026-05-01 11:57 | 4.69242 | -74.14513 | 8372 ft | 40 kts | 127° |
| 2026-05-01 11:57 | 4.69120 | -74.14352 | 8374 ft | 19 kts | 127° |
| 2026-05-01 11:57 | 4.69049 | -74.14250 | 8374 ft | 17 kts | 109° |
| 2026-05-01 11:57 | 4.69067 | -74.14147 | 8375 ft | 15 kts | 51° |
| 2026-05-01 11:58 | 4.69148 | -74.14095 | 8377 ft | 13 kts | 11° |
| 2026-05-01 11:58 | 4.69224 | -74.14134 | 8375 ft | 12 kts | 305° |
| 2026-05-01 11:58 | 4.69328 | -74.14276 | 8373 ft | 13 kts | 307° |
| 2026-05-01 11:59 | 4.69384 | -74.14350 | 8372 ft | 14 kts | 307° |
| 2026-05-01 11:59 | 4.69443 | -74.14430 | 8372 ft | 16 kts | 307° |
| 2026-05-01 11:59 | 4.69522 | -74.14533 | 8373 ft | 19 kts | 307° |
| 2026-05-01 12:00 | 4.69685 | -74.14750 | 8372 ft | 20 kts | 307° |
| 2026-05-01 12:00 | 4.69791 | -74.14792 | 8373 ft | 17 kts | 26° |
| 2026-05-01 12:00 | 4.69790 | -74.14632 | 8374 ft | 9 kts | 127° |
| 2026-05-01 12:01 | 4.69782 | -74.14620 | 8373 ft | 3 kts | 123° |
| 2026-05-01 12:01 | 4.69784 | -74.14590 | 8374 ft | 5 kts | 60° |
| 2026-05-01 12:01 | 4.69796 | -74.14576 | 8375 ft | 2 kts | 47° |
| 2026-05-01 12:01 | 4.69807 | -74.14566 | 8375 ft | 3 kts | 41° |
| 2026-05-01 12:02 | 4.69814 | -74.14561 | 8375 ft | 1 kts | 39° |
| 2026-05-01 12:02 | 4.69815 | -74.14560 | 8375 ft | 0 kts | 39° |
| 2026-05-01 12:02 | 4.69817 | -74.14557 | 8374 ft | 0 kts | 36° |
| 2026-05-01 12:03 | 4.70049 | -74.14370 | 8388 ft | 0 kts | 36° |
| 2026-05-01 12:04 | 4.69800 | -74.13888 | 8376 ft | 0 kts | 216° |